• Join FlightAware (Why Join?)
  • Login
  • US Flag 
11:44AM EDT


 

Airport Tracker/Info


-or-


 

Live Flight TrackerFlight Track Log ✈ N770NC ✈ 10-Jun-2013 ✈ KATL - KBNA

Flight Track Log - Related Links

Times and Time Zones

All times are in EDT time to prevent confusion due to time zone crossing. See the N770NC flight status page for this flight to view local times or setup timezone preferences in your user account.

Time Position Orientation Groundspeed Altitude Reporting Facility
EDT Latitude Longitude Course Direction KTS MPH feet Rate Location/Type
02:22PM 33.6500 -84.4667 347° North 174 200 2,700  Level Atlanta TRACON
02:23PM 33.6667 -84.5333 287° West 256 295 4,500 1,980 Climbing Atlanta TRACON
02:24PM 33.7333 -84.5667 337° Northwest 278 320 6,700 1,980 Climbing Atlanta TRACON
02:25PM 34.0089 -84.5157 349° North  Level FlightAware Approximate
02:25PM 33.8661 -84.6042 347° North 317 365 9,800  Level Atlanta Center
02:26PM 34.0968 -84.5372 347° North  Level FlightAware Approximate
02:26PM 33.9661 -84.6200 353° North 322 371 11,200  Level Atlanta Center
02:27PM 34.0683 -84.6331 354° North 347 399 12,600 1,620 Climbing Atlanta Center
02:28PM 34.1747 -84.6464 354° North 376 433 14,500 1,740 Climbing Atlanta Center
02:29PM 34.2767 -84.6822 344° North 384 442 16,100 1,620 Climbing Atlanta Center
02:30PM 34.3767 -84.7408 334° Northwest 390 449 17,800 1,560 Climbing Atlanta Center
02:31PM 34.4703 -84.8047 331° Northwest 390 449 19,300 1,260 Climbing Atlanta Center
02:32PM 34.5511 -84.8661 328° Northwest 397 457 20,400 1,200 Climbing Atlanta Center
02:33PM 34.6489 -84.9328 331° Northwest 397 457 21,700 1,260 Climbing Atlanta Center
02:34PM 34.7422 -85.0044 328° Northwest 390 449 23,000 1,320 Climbing Atlanta Center
02:35PM 34.8417 -85.0714 331° Northwest 396 456 24,400 1,200 Climbing Atlanta Center
02:36PM 34.9456 -85.1386 332° Northwest 402 463 25,400 780 Climbing Atlanta Center
02:37PM 35.0303 -85.2308 318° Northwest 408 470 26,000 -300 Climbing Atlanta Center
02:38PM 35.1128 -85.3361 314° West 413 475 24,800 -840 Descending Atlanta Center
02:40PM 35.2267 -85.4894 312° West 441 507 24,000 -600 Descending Memphis Center
02:41PM 35.3100 -85.5914 315° West 441 507 23,500 -600 Descending Memphis Center
02:42PM 35.3997 -85.7033 315° West 430 495 22,800 -900 Descending Memphis Center
02:43PM 35.4786 -85.8036 314° West 419 482 21,700 -2,340 Descending Memphis Center
02:44PM 35.5569 -85.8961 316° Northwest 405 466 18,200 -3,840 Descending Memphis Center
02:45PM 35.6225 -85.9822 313° West 388 447 14,100 -3,360 Descending Memphis Center
02:46PM 35.6883 -86.0731 312° West 373 429 11,500 -1,560 Descending Memphis Center
02:47PM 35.7456 -86.1622 308° West 344 396 11,000 -300 Descending Memphis Center
02:48PM 35.8025 -86.2439 311° West 333 383 10,900 -480 Descending Memphis Center
02:49PM 35.8508 -86.3131 311° West 289 333 10,100 -1,380 Descending Memphis Center
02:50PM 35.8947 -86.3803 309° West 262 302 8,200 -2,040 Descending Memphis Center
02:51PM 35.9508 -86.4442 317° Northwest 252 290 6,100 -1,920 Descending Memphis Center
02:52PM 36.0250 -86.4792 339° North 266 306 4,400 -1,800 Descending Memphis Center
02:53PM 36.0928 -86.5194 334° Northwest 266 306 2,600 -1,200 Descending Memphis Center
02:54PM 36.1589 -86.5628 332° Northwest 266 306 2,000 -600 Descending Memphis Center